Time;durP1;ratioP1;P1;durP2;ratioP2;P2;SDS_P1;SDS_P2;PMS_P1;PMS_P2;Temp;Humidity;BMP_temperature;BMP_pressure;BME280_temperature;BME280_humidity;BME280_pressure;Samples;Min_cycle;Max_cycle;Signal;HPM_P1;HPM_P2
2022/03/27 00:02:08;;;;;;;15.32;13.05;;;;;;;;;;10424602;28;20211;-75
2022/03/27 00:07:09;;;;;;;20.98;13.82;;;;;;;;;;10422710;28;20304;-75
2022/03/27 00:12:10;;;;;;;20.50;15.02;;;;;;;;;;10423884;28;20214;-75
2022/03/27 00:17:11;;;;;;;18.98;14.13;;;;;;;;;;10423264;28;20321;-73
2022/03/27 00:22:13;;;;;;;19.60;13.48;;;;;;;;;;10423583;28;20955;-75
2022/03/27 00:27:14;;;;;;;18.42;13.60;;;;;;;;;;10402319;28;20269;-74
2022/03/27 00:32:16;;;;;;;15.45;12.50;;;;;;;;;;10419455;28;20229;-75
2022/03/27 00:37:17;;;;;;;15.43;12.57;;;;;;;;;;10406548;28;20675;-75
2022/03/27 00:42:20;;;;;;;14.05;11.93;;;;;;;;;;10422840;28;20210;-75
2022/03/27 00:47:21;;;;;;;13.35;11.95;;;;;;;;;;10422213;28;20218;-74
2022/03/27 00:52:22;;;;;;;14.70;12.20;;;;;;;;;;10421518;28;20289;-74
2022/03/27 00:57:23;;;;;;;15.63;13.13;;;;;;;;;;10418763;28;20219;-74
2022/03/27 01:02:25;;;;;;;13.68;11.80;;;;;;;;;;10421962;28;20215;-74
2022/03/27 01:07:26;;;;;;;14.05;11.63;;;;;;;;;;10404540;28;20221;-73
2022/03/27 01:12:38;;;;;;;14.02;11.60;;;;;;;;;;10420988;28;20210;-74
2022/03/27 01:17:39;;;;;;;18.25;12.48;;;;;;;;;;10423129;28;20233;-74
2022/03/27 01:22:40;;;;;;;17.08;13.70;;;;;;;;;;10437603;28;20242;-74
2022/03/27 01:27:41;;;;;;;16.23;12.80;;;;;;;;;;10422516;28;20301;-74
2022/03/27 01:32:42;;;;;;;16.20;11.57;;;;;;;;;;10420346;28;20291;-74
2022/03/27 01:37:43;;;;;;;15.93;11.77;;;;;;;;;;10420085;28;20234;-74
2022/03/27 01:42:44;;;;;;;15.05;11.63;;;;;;;;;;10418241;28;20211;-74
2022/03/27 01:47:46;;;;;;;18.58;12.43;;;;;;;;;;10420327;28;20296;-74
2022/03/27 01:52:47;;;;;;;13.50;12.02;;;;;;;;;;10421243;28;20694;-74
2022/03/27 01:57:48;;;;;;;18.63;13.55;;;;;;;;;;10419162;28;20226;-74
2022/03/27 02:02:49;;;;;;;21.67;14.77;;;;;;;;;;10403257;28;20232;-74
2022/03/27 02:07:50;;;;;;;17.23;14.50;;;;;;;;;;10409766;28;20260;-74
2022/03/27 02:12:51;;;;;;;19.95;14.18;;;;;;;;;;10419517;28;21065;-74
2022/03/27 02:17:52;;;;;;;17.70;14.05;;;;;;;;;;10415567;28;20288;-74
2022/03/27 02:22:53;;;;;;;19.67;14.32;;;;;;;;;;10418478;28;20206;-73
2022/03/27 02:27:54;;;;;;;22.08;13.65;;;;;;;;;;10420389;28;20218;-73
2022/03/27 02:32:56;;;;;;;17.00;14.27;;;;;;;;;;10416513;28;20800;-73
2022/03/27 02:37:57;;;;;;;17.70;14.13;;;;;;;;;;10417566;28;20222;-74
2022/03/27 02:43:01;;;;;;;21.00;15.00;;;;;;;;;;10418487;28;20203;-73
2022/03/27 02:48:02;;;;;;;17.05;14.15;;;;;;;;;;10417948;28;20254;-74
2022/03/27 02:53:04;;;;;;;18.15;14.95;;;;;;;;;;10418084;28;20215;-74
2022/03/27 02:58:05;;;;;;;19.15;14.05;;;;;;;;;;10426401;28;20226;-73
2022/03/27 03:03:06;;;;;;;17.27;14.75;;;;;;;;;;10426318;28;20222;-74
2022/03/27 03:08:11;;;;;;;19.52;14.27;;;;;;;;;;10427295;28;20199;-73
2022/03/27 03:13:12;;;;;;;18.05;13.95;;;;;;;;;;10427252;28;20218;-73
2022/03/27 03:18:13;;;;;;;18.52;14.23;;;;;;;;;;10408822;28;20231;-73
2022/03/27 03:23:14;;;;;;;18.98;14.52;;;;;;;;;;10424880;28;20210;-74
2022/03/27 03:28:15;;;;;;;20.63;16.27;;;;;;;;;;10422957;28;20235;-74
2022/03/27 03:33:18;;;;;;;23.08;16.13;;;;;;;;;;10426521;28;20763;-74
2022/03/27 03:38:19;;;;;;;23.40;16.08;;;;;;;;;;10425645;28;20303;-74
2022/03/27 03:43:20;;;;;;;26.70;16.45;;;;;;;;;;10418453;28;20204;-73
2022/03/27 03:48:21;;;;;;;20.98;16.08;;;;;;;;;;10424719;28;20221;-74
2022/03/27 03:53:23;;;;;;;22.27;16.10;;;;;;;;;;10426375;28;21209;-74
2022/03/27 03:58:24;;;;;;;19.60;15.43;;;;;;;;;;10440450;28;20227;-74
2022/03/27 04:03:25;;;;;;;22.45;16.05;;;;;;;;;;10438769;28;20214;-73
2022/03/27 04:08:26;;;;;;;21.52;15.93;;;;;;;;;;10422783;28;20246;-73
2022/03/27 04:13:27;;;;;;;18.75;14.63;;;;;;;;;;10425790;28;20294;-74
2022/03/27 04:18:28;;;;;;;19.58;14.90;;;;;;;;;;10421971;28;20722;-74
2022/03/27 04:23:29;;;;;;;20.90;14.95;;;;;;;;;;10425739;28;20206;-74
2022/03/27 04:28:30;;;;;;;24.88;15.82;;;;;;;;;;10423344;28;20217;-74
2022/03/27 04:33:32;;;;;;;21.65;14.85;;;;;;;;;;10422926;28;20227;-74
2022/03/27 04:38:33;;;;;;;20.10;14.60;;;;;;;;;;10422673;28;20219;-74
2022/03/27 04:43:34;;;;;;;19.98;15.20;;;;;;;;;;10422285;28;20208;-74
2022/03/27 04:48:35;;;;;;;24.20;15.32;;;;;;;;;;10421811;28;20268;-73
2022/03/27 04:53:36;;;;;;;25.20;15.63;;;;;;;;;;10423507;28;20219;-74
2022/03/27 04:58:37;;;;;;;21.88;15.40;;;;;;;;;;10422434;28;20223;-72
2022/03/27 05:03:38;;;;;;;20.27;15.27;;;;;;;;;;10418735;28;20302;-73
2022/03/27 05:08:40;;;;;;;28.25;15.23;;;;;;;;;;10411710;28;20214;-73
2022/03/27 05:13:41;;;;;;;25.52;15.70;;;;;;;;;;10421615;28;20214;-72
2022/03/27 05:18:42;;;;;;;24.35;16.27;;;;;;;;;;10419379;28;20229;-73
2022/03/27 05:23:43;;;;;;;27.52;16.55;;;;;;;;;;10408512;28;20203;-73
2022/03/27 05:28:44;;;;;;;26.02;15.90;;;;;;;;;;10422501;28;20240;-72
2022/03/27 05:33:45;;;;;;;23.70;16.17;;;;;;;;;;10411647;28;20227;-73
2022/03/27 05:38:46;;;;;;;28.70;16.60;;;;;;;;;;10423247;28;20215;-73
2022/03/27 05:43:47;;;;;;;28.77;16.08;;;;;;;;;;10421753;28;20313;-72
2022/03/27 05:48:48;;;;;;;28.15;18.17;;;;;;;;;;10416305;28;20322;-73
2022/03/27 05:53:49;;;;;;;29.85;17.45;;;;;;;;;;10404999;28;20199;-72
2022/03/27 05:58:50;;;;;;;36.70;19.90;;;;;;;;;;10422326;28;20223;-73
2022/03/27 06:03:51;;;;;;;32.65;18.60;;;;;;;;;;10410528;28;21066;-73
2022/03/27 06:08:57;;;;;;;66.97;21.05;;;;;;;;;;10435484;28;20264;-73
2022/03/27 06:13:58;;;;;;;33.45;20.15;;;;;;;;;;10420499;28;20218;-72
2022/03/27 06:18:59;;;;;;;93.10;20.58;;;;;;;;;;10397796;28;20337;-73
2022/03/27 06:24:00;;;;;;;73.57;19.30;;;;;;;;;;10420879;28;20242;-73
2022/03/27 06:29:01;;;;;;;82.65;22.30;;;;;;;;;;10420133;28;20698;-73
2022/03/27 06:34:04;;;;;;;68.55;22.85;;;;;;;;;;10409462;28;20227;-73
2022/03/27 06:39:06;;;;;;;113.95;22.58;;;;;;;;;;10420253;28;20322;-74
2022/03/27 06:44:07;;;;;;;39.53;20.58;;;;;;;;;;10415269;28;20218;-73
2022/03/27 06:49:08;;;;;;;75.88;21.25;;;;;;;;;;10413652;28;20218;-73
2022/03/27 06:54:09;;;;;;;62.00;20.20;;;;;;;;;;10419024;28;20210;-73
2022/03/27 06:59:10;;;;;;;74.65;19.55;;;;;;;;;;10401272;28;20223;-73
2022/03/27 07:04:11;;;;;;;113.45;18.80;;;;;;;;;;10420162;28;20251;-74
2022/03/27 07:09:13;;;;;;;117.20;21.25;;;;;;;;;;10416560;28;20203;-73
2022/03/27 07:14:14;;;;;;;39.72;20.48;;;;;;;;;;10410951;28;20675;-73
2022/03/27 07:19:15;;;;;;;48.03;21.40;;;;;;;;;;10411618;28;20229;-73
2022/03/27 07:24:16;;;;;;;31.17;19.63;;;;;;;;;;10402715;28;20207;-73
2022/03/27 07:29:17;;;;;;;35.55;19.88;;;;;;;;;;10414012;28;20206;-73
2022/03/27 07:34:19;;;;;;;30.80;18.83;;;;;;;;;;10401083;28;20226;-73
2022/03/27 07:39:21;;;;;;;27.27;17.02;;;;;;;;;;10416830;28;20218;-73
2022/03/27 07:44:22;;;;;;;29.15;17.05;;;;;;;;;;10426644;28;20207;-74
2022/03/27 07:49:23;;;;;;;30.92;17.33;;;;;;;;;;10427973;28;20238;-74
2022/03/27 07:54:25;;;;;;;24.92;16.15;;;;;;;;;;10420863;28;20294;-74
2022/03/27 07:59:26;;;;;;;20.15;15.70;;;;;;;;;;10423442;28;20215;-73
2022/03/27 08:04:27;;;;;;;23.27;15.82;;;;;;;;;;10425600;28;20227;-73
2022/03/27 08:09:28;;;;;;;21.67;15.68;;;;;;;;;;10426554;28;20707;-73
2022/03/27 08:14:31;;;;;;;20.00;14.77;;;;;;;;;;10424742;28;20226;-73
2022/03/27 08:19:32;;;;;;;21.45;15.55;;;;;;;;;;10424373;28;20226;-73
2022/03/27 08:24:33;;;;;;;20.20;15.27;;;;;;;;;;10413790;28;20667;-74
2022/03/27 08:29:36;;;;;;;18.13;13.73;;;;;;;;;;10422488;28;20593;-74
2022/03/27 08:34:38;;;;;;;18.48;15.25;;;;;;;;;;10423434;28;20289;-73
2022/03/27 08:39:39;;;;;;;18.30;14.75;;;;;;;;;;10424318;28;20231;-74
2022/03/27 08:44:41;;;;;;;17.35;14.38;;;;;;;;;;10423057;28;20280;-74
2022/03/27 08:49:47;;;;;;;15.35;13.27;;;;;;;;;;10424793;28;20237;-72
2022/03/27 08:54:48;;;;;;;16.10;13.88;;;;;;;;;;10422546;28;20290;-74
2022/03/27 08:59:52;;;;;;;18.33;13.20;;;;;;;;;;10424647;28;20234;-74
2022/03/27 09:04:54;;;;;;;15.65;13.35;;;;;;;;;;10405096;28;20654;-74
2022/03/27 09:09:58;;;;;;;14.35;11.88;;;;;;;;;;10424001;28;20231;-74
2022/03/27 09:14:59;;;;;;;13.23;11.93;;;;;;;;;;10422772;28;20698;-74
2022/03/27 09:20:02;;;;;;;14.88;12.18;;;;;;;;;;10412445;28;21087;-75
2022/03/27 09:25:04;;;;;;;17.98;12.70;;;;;;;;;;10424077;28;20214;-74
2022/03/27 09:30:07;;;;;;;15.18;12.88;;;;;;;;;;10409402;28;20702;-77
2022/03/27 09:35:10;;;;;;;15.00;12.60;;;;;;;;;;10425196;28;20373;-75
2022/03/27 09:40:12;;;;;;;14.23;11.40;;;;;;;;;;10422520;28;20607;-76
2022/03/27 09:45:15;;;;;;;11.70;10.60;;;;;;;;;;10420779;28;20663;-75
2022/03/27 09:50:35;;;;;;;11.77;10.57;;;;;;;;;;10423376;28;20211;-75
2022/03/27 09:55:36;;;;;;;13.00;11.07;;;;;;;;;;10418368;28;20226;-75
2022/03/27 10:00:37;;;;;;;12.20;10.82;;;;;;;;;;10423067;28;20717;-76
2022/03/27 10:05:38;;;;;;;12.00;10.77;;;;;;;;;;10413834;28;20226;-76
2022/03/27 10:10:40;;;;;;;11.25;10.25;;;;;;;;;;10420407;28;20276;-76
2022/03/27 10:15:41;;;;;;;11.25;9.70;;;;;;;;;;10421000;28;20223;-76
2022/03/27 10:20:44;;;;;;;10.77;9.68;;;;;;;;;;10423771;28;20305;-75
2022/03/27 10:25:56;;;;;;;11.88;10.45;;;;;;;;;;10421853;28;20710;-75
2022/03/27 10:30:57;;;;;;;9.88;9.05;;;;;;;;;;10420115;28;20717;-74
2022/03/27 10:36:13;;;;;;;9.18;8.38;;;;;;;;;;10435859;28;20222;-77
2022/03/27 10:41:17;;;;;;;9.38;8.57;;;;;;;;;;10420785;28;20234;-76
2022/03/27 10:46:19;;;;;;;9.88;9.05;;;;;;;;;;10418753;28;20204;-74
2022/03/27 10:51:26;;;;;;;9.68;8.77;;;;;;;;;;10418065;28;20219;-76
2022/03/27 10:56:36;;;;;;;7.97;7.38;;;;;;;;;;10414991;28;20242;-75
2022/03/27 11:01:38;;;;;;;9.60;8.73;;;;;;;;;;10417557;28;20228;-74
2022/03/27 11:06:42;;;;;;;9.80;8.93;;;;;;;;;;10410359;28;20206;-75
2022/03/27 11:11:47;;;;;;;9.95;9.05;;;;;;;;;;10412696;28;20277;-74
2022/03/27 11:17:06;;;;;;;10.00;9.20;;;;;;;;;;10422517;28;20360;-73
2022/03/27 11:22:28;;;;;;;10.07;9.18;;;;;;;;;;10426470;28;20298;-74
2022/03/27 11:27:47;;;;;;;10.13;9.23;;;;;;;;;;10425639;28;20215;-72
2022/03/27 11:33:07;;;;;;;10.32;9.32;;;;;;;;;;10440988;28;20250;-73
2022/03/27 11:38:25;;;;;;;10.68;9.77;;;;;;;;;;10426161;28;20215;-73
2022/03/27 11:43:30;;;;;;;10.23;9.45;;;;;;;;;;10422582;28;20215;-73
2022/03/27 11:48:31;;;;;;;11.07;10.15;;;;;;;;;;10426007;28;20203;-74
2022/03/27 11:53:33;;;;;;;11.10;9.80;;;;;;;;;;10405933;28;20218;-74
2022/03/27 11:58:35;;;;;;;9.73;8.82;;;;;;;;;;10425034;28;20234;-73
2022/03/27 12:03:37;;;;;;;10.05;9.15;;;;;;;;;;10424198;28;20309;-74
2022/03/27 12:08:40;;;;;;;9.98;9.00;;;;;;;;;;10424230;28;20219;-73
2022/03/27 12:13:43;;;;;;;7.85;7.32;;;;;;;;;;10423735;28;20210;-74
2022/03/27 12:18:45;;;;;;;10.27;9.30;;;;;;;;;;10424465;28;20823;-75
2022/03/27 12:23:55;;;;;;;9.05;8.38;;;;;;;;;;10423997;28;20219;-74
2022/03/27 12:34:29;;;;;;;7.57;7.15;;;;;;;;;;10420367;28;20239;-74
2022/03/27 12:39:30;;;;;;;9.35;8.52;;;;;;;;;;10420222;28;20215;-72
2022/03/27 12:44:48;;;;;;;7.70;7.20;;;;;;;;;;10419359;28;20237;-75
2022/03/27 12:49:52;;;;;;;8.68;8.07;;;;;;;;;;10422459;28;20393;-73
2022/03/27 12:54:59;;;;;;;7.65;7.22;;;;;;;;;;10423991;28;20299;-74
2022/03/27 13:00:00;;;;;;;7.97;7.28;;;;;;;;;;10421963;28;20887;-74
2022/03/27 13:05:01;;;;;;;7.00;6.60;;;;;;;;;;10423161;28;20219;-73
2022/03/27 13:10:09;;;;;;;7.15;6.75;;;;;;;;;;10425851;28;20233;-75
2022/03/27 13:15:11;;;;;;;7.88;7.22;;;;;;;;;;10421073;28;20236;-73
2022/03/27 13:20:28;;;;;;;7.30;6.80;;;;;;;;;;10419566;28;20219;-74
2022/03/27 13:25:29;;;;;;;7.43;6.93;;;;;;;;;;10422928;28;20211;-73
2022/03/27 13:30:30;;;;;;;7.35;6.85;;;;;;;;;;10421400;28;20214;-73
2022/03/27 13:35:32;;;;;;;8.27;7.57;;;;;;;;;;10420146;28;20219;-74
2022/03/27 13:45:53;;;;;;;8.50;7.80;;;;;;;;;;10422470;28;20221;-73
2022/03/27 13:50:54;;;;;;;8.95;8.25;;;;;;;;;;10423496;28;20207;-74
2022/03/27 13:55:55;;;;;;;8.65;7.97;;;;;;;;;;10419206;28;20215;-74
2022/03/27 14:00:56;;;;;;;7.95;7.35;;;;;;;;;;10420971;28;20215;-75
2022/03/27 14:06:00;;;;;;;9.15;8.45;;;;;;;;;;10420935;28;20990;-73
2022/03/27 14:11:01;;;;;;;8.68;7.93;;;;;;;;;;10421656;28;20211;-74
2022/03/27 14:16:02;;;;;;;9.73;8.80;;;;;;;;;;10419672;28;20254;-74
2022/03/27 14:21:03;;;;;;;9.43;8.73;;;;;;;;;;10421565;28;20230;-74
2022/03/27 14:26:05;;;;;;;9.75;8.93;;;;;;;;;;10421070;28;20214;-75
2022/03/27 14:31:06;;;;;;;9.88;8.98;;;;;;;;;;10425074;28;20228;-73
2022/03/27 14:36:07;;;;;;;9.57;8.85;;;;;;;;;;10422440;28;20702;-73
2022/03/27 14:41:08;;;;;;;10.45;9.30;;;;;;;;;;10418951;28;20299;-73
2022/03/27 14:46:09;;;;;;;11.00;9.82;;;;;;;;;;10419974;28;20318;-74
2022/03/27 14:51:11;;;;;;;10.60;9.60;;;;;;;;;;10421555;28;20209;-74
2022/03/27 14:56:12;;;;;;;11.57;9.93;;;;;;;;;;10422960;28;20268;-74
2022/03/27 15:01:13;;;;;;;11.13;9.88;;;;;;;;;;10424542;28;20273;-72
2022/03/27 15:06:14;;;;;;;11.02;9.85;;;;;;;;;;10428987;28;20648;-73
2022/03/27 15:11:16;;;;;;;11.00;9.93;;;;;;;;;;10428103;28;20207;-73
2022/03/27 15:16:17;;;;;;;11.50;10.32;;;;;;;;;;10427282;28;20670;-73
2022/03/27 15:21:18;;;;;;;11.63;10.52;;;;;;;;;;10423330;28;20212;-73
2022/03/27 15:26:19;;;;;;;11.85;10.63;;;;;;;;;;10425925;28;20199;-74
2022/03/27 15:31:22;;;;;;;12.13;10.40;;;;;;;;;;10425488;28;20223;-72
2022/03/27 15:36:23;;;;;;;13.85;10.55;;;;;;;;;;10425328;28;20702;-73
2022/03/27 15:41:24;;;;;;;13.38;11.52;;;;;;;;;;10427248;28;20693;-75
2022/03/27 15:46:25;;;;;;;14.05;11.18;;;;;;;;;;10425559;28;20207;-73
2022/03/27 15:51:26;;;;;;;13.82;10.80;;;;;;;;;;10426921;28;20219;-73
2022/03/27 15:56:28;;;;;;;13.65;11.40;;;;;;;;;;10425230;28;20238;-74
2022/03/27 16:01:29;;;;;;;14.27;11.30;;;;;;;;;;10425187;28;20228;-72
2022/03/27 16:06:30;;;;;;;12.50;10.75;;;;;;;;;;10426282;28;20305;-72
2022/03/27 16:11:31;;;;;;;14.27;11.02;;;;;;;;;;10423731;28;20935;-73
2022/03/27 16:16:33;;;;;;;11.95;10.65;;;;;;;;;;10425477;28;20710;-73
2022/03/27 16:21:34;;;;;;;13.43;10.40;;;;;;;;;;10423661;28;20809;-73
2022/03/27 16:26:35;;;;;;;13.93;10.55;;;;;;;;;;10424828;28;20218;-72
2022/03/27 16:31:36;;;;;;;12.15;10.88;;;;;;;;;;10424866;28;20223;-73
2022/03/27 16:36:37;;;;;;;11.50;10.18;;;;;;;;;;10423245;28;20313;-73
2022/03/27 16:41:38;;;;;;;12.63;10.55;;;;;;;;;;10422394;28;20249;-74
2022/03/27 16:46:39;;;;;;;13.35;10.70;;;;;;;;;;10424813;28;20227;-74
2022/03/27 16:51:41;;;;;;;11.82;10.63;;;;;;;;;;10425448;28;20211;-74
2022/03/27 16:56:42;;;;;;;19.17;10.95;;;;;;;;;;10422868;28;20218;-73
2022/03/27 17:01:44;;;;;;;12.63;10.82;;;;;;;;;;10421569;28;20213;-73
2022/03/27 17:06:45;;;;;;;13.68;10.90;;;;;;;;;;10424028;28;20214;-73
2022/03/27 17:11:46;;;;;;;11.25;9.80;;;;;;;;;;10423404;28;20211;-73
2022/03/27 17:16:47;;;;;;;15.25;10.70;;;;;;;;;;10420877;28;20289;-74
2022/03/27 17:21:49;;;;;;;13.30;11.07;;;;;;;;;;10422035;28;20688;-73
2022/03/27 17:26:50;;;;;;;14.48;10.20;;;;;;;;;;10421805;28;20214;-74
2022/03/27 17:31:51;;;;;;;11.43;8.88;;;;;;;;;;10420409;28;20257;-73
2022/03/27 17:36:54;;;;;;;12.43;9.77;;;;;;;;;;10426939;28;20218;-73
2022/03/27 17:41:56;;;;;;;9.63;8.63;;;;;;;;;;10422053;28;20558;-73
2022/03/27 17:46:57;;;;;;;10.00;8.98;;;;;;;;;;10437426;28;20710;-74
2022/03/27 17:51:58;;;;;;;9.75;8.35;;;;;;;;;;10422890;28;20645;-73
2022/03/27 17:57:02;;;;;;;11.10;9.07;;;;;;;;;;10420712;28;20257;-74
2022/03/27 18:02:04;;;;;;;9.52;8.63;;;;;;;;;;10420829;28;20226;-74
2022/03/27 18:07:05;;;;;;;10.00;8.98;;;;;;;;;;10422350;28;20269;-73
2022/03/27 18:12:07;;;;;;;12.90;8.60;;;;;;;;;;10417844;28;20740;-74
2022/03/27 18:17:09;;;;;;;9.77;8.68;;;;;;;;;;10421094;28;20778;-73
2022/03/27 18:22:10;;;;;;;10.25;9.25;;;;;;;;;;10420740;28;20206;-74
2022/03/27 18:27:11;;;;;;;10.30;9.23;;;;;;;;;;10422670;28;20211;-73
2022/03/27 18:32:12;;;;;;;10.45;9.13;;;;;;;;;;10421952;28;20219;-73
2022/03/27 18:37:15;;;;;;;13.63;8.88;;;;;;;;;;10420319;28;20214;-73
2022/03/27 18:42:16;;;;;;;9.98;8.35;;;;;;;;;;10422871;28;20206;-73
2022/03/27 18:47:18;;;;;;;9.55;8.32;;;;;;;;;;10417547;28;20228;-73
2022/03/27 18:52:19;;;;;;;12.98;8.32;;;;;;;;;;10418710;28;20214;-74
2022/03/27 18:57:20;;;;;;;10.02;8.50;;;;;;;;;;10420224;28;20218;-74
2022/03/27 19:02:22;;;;;;;9.43;8.35;;;;;;;;;;10417206;28;20223;-73
2022/03/27 19:07:23;;;;;;;9.55;8.52;;;;;;;;;;10433849;28;20746;-73
2022/03/27 19:12:24;;;;;;;8.18;7.28;;;;;;;;;;10436928;28;20714;-73
2022/03/27 19:17:34;;;;;;;9.98;8.07;;;;;;;;;;10418070;28;20223;-74
2022/03/27 19:22:52;;;;;;;8.18;7.43;;;;;;;;;;10409806;28;20249;-73
2022/03/27 19:27:53;;;;;;;11.27;8.80;;;;;;;;;;10417602;28;20210;-72
2022/03/27 19:32:55;;;;;;;9.68;8.25;;;;;;;;;;10418267;28;20215;-74
2022/03/27 19:37:57;;;;;;;12.70;10.38;;;;;;;;;;10439430;28;20226;-75
2022/03/27 19:42:58;;;;;;;17.10;12.23;;;;;;;;;;10425149;28;20241;-73
2022/03/27 19:47:59;;;;;;;18.00;12.73;;;;;;;;;;10420061;28;20206;-72
2022/03/27 19:53:00;;;;;;;19.73;13.25;;;;;;;;;;10426143;28;20303;-74
2022/03/27 19:58:02;;;;;;;17.58;13.48;;;;;;;;;;10423913;28;20227;-73
2022/03/27 20:03:05;;;;;;;17.77;12.85;;;;;;;;;;10423341;28;20222;-73
2022/03/27 20:08:06;;;;;;;20.35;13.73;;;;;;;;;;10422318;28;20630;-73
2022/03/27 20:13:08;;;;;;;18.08;11.88;;;;;;;;;;10418430;28;20202;-74
2022/03/27 20:18:09;;;;;;;17.75;12.32;;;;;;;;;;10424468;28;20219;-73
2022/03/27 20:23:12;;;;;;;15.60;12.00;;;;;;;;;;10424671;28;20211;-73
2022/03/27 20:28:13;;;;;;;17.52;12.63;;;;;;;;;;10415272;28;20730;-73
2022/03/27 20:33:15;;;;;;;19.48;13.38;;;;;;;;;;10420177;28;20214;-73
2022/03/27 20:38:17;;;;;;;17.08;12.65;;;;;;;;;;10424579;28;20627;-73
2022/03/27 20:43:19;;;;;;;20.90;12.88;;;;;;;;;;10424995;28;20239;-74
2022/03/27 20:48:20;;;;;;;18.90;13.38;;;;;;;;;;10423435;28;20614;-74
2022/03/27 20:53:21;;;;;;;17.02;14.10;;;;;;;;;;10414220;28;20277;-74
2022/03/27 20:58:23;;;;;;;21.40;14.50;;;;;;;;;;10421584;28;20297;-73
2022/03/27 21:03:24;;;;;;;18.95;14.52;;;;;;;;;;10421448;28;20234;-74
2022/03/27 21:08:25;;;;;;;20.58;13.20;;;;;;;;;;10418121;28;20609;-73
2022/03/27 21:13:26;;;;;;;19.73;13.20;;;;;;;;;;10424111;28;20811;-74
2022/03/27 21:18:27;;;;;;;20.00;12.40;;;;;;;;;;10421809;28;20614;-74
2022/03/27 21:23:28;;;;;;;19.63;13.52;;;;;;;;;;10420894;28;20217;-73
2022/03/27 21:28:29;;;;;;;17.70;13.65;;;;;;;;;;10423543;28;20593;-74
2022/03/27 21:33:30;;;;;;;16.92;12.85;;;;;;;;;;10422025;28;20265;-73
2022/03/27 21:38:31;;;;;;;19.92;11.73;;;;;;;;;;10421300;28;20315;-73
2022/03/27 21:43:33;;;;;;;18.30;12.75;;;;;;;;;;10417759;28;20572;-74
2022/03/27 21:48:36;;;;;;;23.10;12.88;;;;;;;;;;10426774;28;20274;-73
2022/03/27 21:53:39;;;;;;;20.67;11.82;;;;;;;;;;10419973;28;20231;-74
2022/03/27 21:58:40;;;;;;;18.83;11.52;;;;;;;;;;10418962;28;20250;-74
2022/03/27 22:03:41;;;;;;;16.42;10.82;;;;;;;;;;10419467;28;20302;-73
2022/03/27 22:08:42;;;;;;;18.48;11.80;;;;;;;;;;10423556;28;20660;-73
2022/03/27 22:13:44;;;;;;;16.10;11.05;;;;;;;;;;10419486;28;20210;-73
2022/03/27 22:18:45;;;;;;;18.15;11.48;;;;;;;;;;10420466;28;20281;-73
2022/03/27 22:23:46;;;;;;;20.08;10.48;;;;;;;;;;10421116;28;20202;-73
2022/03/27 22:28:47;;;;;;;17.83;10.85;;;;;;;;;;10420101;28;20223;-73
2022/03/27 22:33:49;;;;;;;16.67;10.82;;;;;;;;;;10421839;28;20226;-73
2022/03/27 22:38:52;;;;;;;17.92;10.45;;;;;;;;;;10419630;28;20637;-73
2022/03/27 22:43:53;;;;;;;19.60;11.75;;;;;;;;;;10421597;28;20210;-74
2022/03/27 22:48:57;;;;;;;16.98;10.13;;;;;;;;;;10419733;28;20217;-74
2022/03/27 22:53:58;;;;;;;17.15;10.88;;;;;;;;;;10420978;28;20608;-73
2022/03/27 22:59:01;;;;;;;13.93;9.45;;;;;;;;;;10420600;28;20218;-73
2022/03/27 23:04:02;;;;;;;19.05;10.15;;;;;;;;;;10417090;28;20218;-73
2022/03/27 23:09:03;;;;;;;16.48;9.80;;;;;;;;;;10418437;28;20215;-73
2022/03/27 23:14:04;;;;;;;20.35;11.13;;;;;;;;;;10436525;28;20215;-74
2022/03/27 23:19:05;;;;;;;17.65;10.40;;;;;;;;;;10418401;28;20632;-73
2022/03/27 23:24:06;;;;;;;17.65;11.02;;;;;;;;;;10427450;28;20280;-74
2022/03/27 23:29:08;;;;;;;15.40;9.88;;;;;;;;;;10427835;28;20207;-73
2022/03/27 23:34:09;;;;;;;17.80;10.23;;;;;;;;;;10442676;28;20322;-74
2022/03/27 23:39:10;;;;;;;19.88;10.60;;;;;;;;;;10426491;28;20854;-74
2022/03/27 23:44:12;;;;;;;12.40;8.30;;;;;;;;;;10422599;28;20210;-73
2022/03/27 23:49:13;;;;;;;16.90;9.18;;;;;;;;;;10425507;28;20208;-74
2022/03/27 23:54:14;;;;;;;10.43;8.30;;;;;;;;;;10427783;28;20269;-73
2022/03/27 23:59:15;;;;;;;17.13;9.00;;;;;;;;;;10425778;28;20265;-74
